createdAt,value
2018-02-02T00:00:10.865Z,99.99
2018-02-02T00:01:11.103Z,99.99
2018-02-02T00:02:11.090Z,99.99
2018-02-02T00:03:11.069Z,99.99
2018-02-02T00:04:11.055Z,99.99
2018-02-02T00:05:11.039Z,99.99
2018-02-02T00:06:11.017Z,99.99
2018-02-02T00:07:10.749Z,99.99
2018-02-02T00:08:10.990Z,99.99
2018-02-02T00:09:10.973Z,99.99
2018-02-02T00:10:10.701Z,99.99
2018-02-02T00:11:10.943Z,99.99
2018-02-02T00:12:10.930Z,99.99
2018-02-02T00:13:10.904Z,99.99
2018-02-02T00:14:10.888Z,99.99
2018-02-02T00:15:10.870Z,99.99
2018-02-02T00:16:10.864Z,99.99
2018-02-02T00:17:10.841Z,99.99
2018-02-02T00:18:10.572Z,99.99
2018-02-02T00:19:10.812Z,99.99
2018-02-02T00:20:10.797Z,99.99
2018-02-02T00:21:10.774Z,99.99
2018-02-02T00:22:10.767Z,99.99
2018-02-02T00:23:10.743Z,99.99
2018-02-02T00:24:10.733Z,99.99
2018-02-02T00:25:10.713Z,99.99
2018-02-02T00:26:10.693Z,99.99
2018-02-02T00:27:10.425Z,99.99
2018-02-02T00:28:10.661Z,99.99
2018-02-02T00:29:10.645Z,99.99
2018-02-02T00:30:10.633Z,99.99
2018-02-02T00:31:10.618Z,99.99
2018-02-02T00:32:10.600Z,99.99
2018-02-02T00:33:10.583Z,99.99
2018-02-02T00:34:10.571Z,99.99
2018-02-02T00:35:10.548Z,99.99
2018-02-02T00:36:10.534Z,99.99
2018-02-02T00:37:10.518Z,99.99
2018-02-02T00:38:10.246Z,99.99
2018-02-02T00:39:10.486Z,99.99
2018-02-02T00:40:10.216Z,99.99
2018-02-02T00:41:10.197Z,99.99
2018-02-02T00:42:10.181Z,99.99
2018-02-02T00:43:10.417Z,99.99
2018-02-02T00:44:10.406Z,99.99
2018-02-02T00:45:10.139Z,99.99
2018-02-02T00:46:10.121Z,99.99
2018-02-02T00:47:10.100Z,99.99
2018-02-02T00:48:10.086Z,99.99
2018-02-02T00:49:10.322Z,99.99
2018-02-02T00:50:10.052Z,99.99
2018-02-02T00:51:10.032Z,99.99
2018-02-02T00:52:10.020Z,99.99
2018-02-02T00:53:10.258Z,99.99
2018-02-02T00:54:10.243Z,99.99
2018-02-02T00:55:09.976Z,99.99
2018-02-02T00:56:10.213Z,99.99
2018-02-02T00:57:09.937Z,99.99
2018-02-02T00:58:10.181Z,99.99
2018-02-02T00:59:10.178Z,99.99
2018-02-02T01:00:10.143Z,99.99
2018-02-02T01:01:10.129Z,99.99
2018-02-02T01:02:09.858Z,99.99
2018-02-02T01:03:10.094Z,99.99
2018-02-02T01:04:10.078Z,99.99
2018-02-02T01:05:10.062Z,99.99
2018-02-02T01:06:10.046Z,99.99
2018-02-02T01:07:09.778Z,99.99
2018-02-02T01:08:10.015Z,99.99
2018-02-02T01:09:10.059Z,99.99
2018-02-02T01:10:09.981Z,99.99
2018-02-02T01:11:09.709Z,99.99
2018-02-02T01:12:09.695Z,99.99
2018-02-02T01:13:09.931Z,99.99
2018-02-02T01:14:09.922Z,99.99
2018-02-02T01:15:09.903Z,99.99
2018-02-02T01:16:09.630Z,99.99
2018-02-02T01:17:09.868Z,99.99
2018-02-02T01:18:09.598Z,99.99
2018-02-02T01:19:09.837Z,99.99
2018-02-02T01:20:09.831Z,99.99
2018-02-02T01:21:09.553Z,99.99
2018-02-02T01:22:09.787Z,99.99
2018-02-02T01:23:09.519Z,99.99
2018-02-02T01:24:09.753Z,99.99
2018-02-02T01:25:09.737Z,99.99
2018-02-02T01:26:09.721Z,99.99
2018-02-02T01:27:09.709Z,99.99
2018-02-02T01:28:09.437Z,99.99
2018-02-02T01:29:09.685Z,99.99
2018-02-02T01:30:09.663Z,99.99
2018-02-02T01:31:09.639Z,99.99
2018-02-02T01:32:09.372Z,99.99
2018-02-02T01:33:09.612Z,99.99
2018-02-02T01:34:09.593Z,99.99
2018-02-02T01:35:09.579Z,99.99
2018-02-02T01:36:09.557Z,99.99
2018-02-02T01:37:09.542Z,99.99
2018-02-02T01:38:09.530Z,99.99
2018-02-02T01:39:09.257Z,99.99
2018-02-02T01:40:09.497Z,99.99
2018-02-02T01:41:09.478Z,99.99
2018-02-02T01:42:09.466Z,99.99
2018-02-02T01:43:09.450Z,99.99
2018-02-02T01:44:09.178Z,99.99
2018-02-02T01:45:09.416Z,99.99
2018-02-02T01:46:09.145Z,99.99
2018-02-02T01:47:09.145Z,99.99
2018-02-02T01:48:09.112Z,99.99
2018-02-02T01:49:09.351Z,99.99
2018-02-02T01:50:09.332Z,99.99
2018-02-02T01:51:09.061Z,99.99
2018-02-02T01:52:09.301Z,99.99
2018-02-02T01:53:09.294Z,99.99
2018-02-02T01:54:09.015Z,99.99
2018-02-02T01:55:09.253Z,99.99
2018-02-02T01:56:09.238Z,99.99
2018-02-02T01:57:09.221Z,99.99
2018-02-02T01:58:09.203Z,99.99
2018-02-02T01:59:09.197Z,99.99
2018-02-02T02:00:09.171Z,99.99
2018-02-02T02:01:09.161Z,99.99
2018-02-02T02:02:09.147Z,99.99
2018-02-02T02:03:09.126Z,99.99
2018-02-02T02:04:09.106Z,99.99
2018-02-02T02:05:08.834Z,99.99
2018-02-02T02:06:08.822Z,99.99
2018-02-02T02:07:09.057Z,99.99
2018-02-02T02:08:09.039Z,99.99
2018-02-02T02:09:09.028Z,99.99
2018-02-02T02:10:09.011Z,99.99
2018-02-02T02:11:08.996Z,99.99
2018-02-02T02:12:08.976Z,99.99
2018-02-02T02:13:08.706Z,99.99
2018-02-02T02:14:08.689Z,99.99
2018-02-02T02:15:08.931Z,99.99
2018-02-02T02:16:08.908Z,99.99
2018-02-02T02:17:08.894Z,99.99
2018-02-02T02:18:08.880Z,99.99
2018-02-02T02:19:08.860Z,99.99
2018-02-02T02:20:08.592Z,99.99
2018-02-02T02:21:08.835Z,99.99
2018-02-02T02:22:08.562Z,99.99
2018-02-02T02:23:08.805Z,99.99
2018-02-02T02:24:08.529Z,99.99
2018-02-02T02:25:08.762Z,99.99
2018-02-02T02:26:08.495Z,99.99
2018-02-02T02:27:08.477Z,99.99
2018-02-02T02:28:08.714Z,99.99
2018-02-02T02:29:08.700Z,99.99
2018-02-02T02:30:08.682Z,99.99
2018-02-02T02:31:08.670Z,99.99
2018-02-02T02:32:08.661Z,99.99
2018-02-02T02:33:08.635Z,99.99
2018-02-02T02:34:08.618Z,99.99
2018-02-02T02:35:08.345Z,99.99
2018-02-02T02:36:08.331Z,99.99
2018-02-02T02:37:08.571Z,99.99
2018-02-02T02:38:08.554Z,99.99
2018-02-02T02:39:08.535Z,99.99
2018-02-02T02:40:08.524Z,99.99
2018-02-02T02:41:08.253Z,99.99
2018-02-02T02:42:08.490Z,99.99
2018-02-02T02:43:08.474Z,99.99
2018-02-02T02:44:08.204Z,99.99
2018-02-02T02:45:08.437Z,99.99
2018-02-02T02:46:08.425Z,99.99
2018-02-02T02:47:08.406Z,99.99
2018-02-02T02:48:08.403Z,99.99
2018-02-02T02:49:08.379Z,99.99
2018-02-02T02:50:08.361Z,99.99
2018-02-02T02:51:08.339Z,99.99
2018-02-02T02:52:08.067Z,99.99
2018-02-02T02:53:08.312Z,99.99
2018-02-02T02:54:08.037Z,99.99
2018-02-02T02:55:08.016Z,99.99
2018-02-02T02:56:08.004Z,99.99
2018-02-02T02:57:07.987Z,99.99
2018-02-02T02:58:08.228Z,99.99
2018-02-02T02:59:08.210Z,99.99
2018-02-02T03:00:07.937Z,99.99
2018-02-02T03:01:08.171Z,99.99
2018-02-02T03:02:08.160Z,99.99
2018-02-02T03:03:07.886Z,99.99
2018-02-02T03:04:08.134Z,99.99
2018-02-02T03:05:07.856Z,99.99
2018-02-02T03:06:07.840Z,99.99
2018-02-02T03:07:08.081Z,99.99
2018-02-02T03:08:08.065Z,99.99
2018-02-02T03:09:07.789Z,99.99
2018-02-02T03:10:07.773Z,99.99
2018-02-02T03:11:08.028Z,99.99
2018-02-02T03:12:07.747Z,99.99
2018-02-02T03:13:07.725Z,99.99
2018-02-02T03:14:07.961Z,99.99
2018-02-02T03:15:07.691Z,99.99
2018-02-02T03:16:07.674Z,99.99
2018-02-02T03:17:07.661Z,99.99
2018-02-02T03:18:07.893Z,99.99
2018-02-02T03:19:07.878Z,99.99
2018-02-02T03:20:07.862Z,99.99
2018-02-02T03:21:07.592Z,99.99
2018-02-02T03:22:07.574Z,99.99
2018-02-02T03:23:07.817Z,99.99
2018-02-02T03:24:07.799Z,99.99
2018-02-02T03:25:07.779Z,99.99
2018-02-02T03:26:07.762Z,99.99
2018-02-02T03:27:07.749Z,99.99
2018-02-02T03:28:07.728Z,99.99
2018-02-02T03:29:07.459Z,99.99
2018-02-02T03:30:07.698Z,99.99
2018-02-02T03:31:07.686Z,99.99
2018-02-02T03:32:07.408Z,99.99
2018-02-02T03:33:07.646Z,99.99
2018-02-02T03:34:07.638Z,99.99
2018-02-02T03:35:07.362Z,99.99
2018-02-02T03:36:07.604Z,99.99
2018-02-02T03:37:07.579Z,99.99
2018-02-02T03:38:07.564Z,99.99
2018-02-02T03:39:07.292Z,99.99
2018-02-02T03:40:07.531Z,99.99
2018-02-02T03:41:07.514Z,99.99
2018-02-02T03:42:07.499Z,99.99
2018-02-02T03:43:07.487Z,99.99
2018-02-02T03:44:07.464Z,99.99
2018-02-02T03:45:07.447Z,99.99
2018-02-02T03:46:07.429Z,99.99
2018-02-02T03:47:07.160Z,99.99
2018-02-02T03:48:07.396Z,99.99
2018-02-02T03:49:07.438Z,99.99
2018-02-02T03:50:07.111Z,99.99
2018-02-02T03:51:07.350Z,99.99
2018-02-02T03:52:07.331Z,99.99
2018-02-02T03:53:07.313Z,99.99
2018-02-02T03:54:07.294Z,99.99
2018-02-02T03:55:07.281Z,99.99
2018-02-02T03:56:07.261Z,99.99
2018-02-02T03:57:07.246Z,99.99
2018-02-02T03:58:07.241Z,99.99
2018-02-02T03:59:07.216Z,99.99
2018-02-02T04:00:06.945Z,99.99
2018-02-02T04:01:06.926Z,99.99
2018-02-02T04:02:07.173Z,99.99
2018-02-02T04:03:07.153Z,99.99
2018-02-02T04:04:07.131Z,99.99
2018-02-02T04:05:06.860Z,99.99
2018-02-02T04:06:06.844Z,99.99
2018-02-02T04:07:07.079Z,99.99
2018-02-02T04:08:07.066Z,99.99
2018-02-02T04:09:07.047Z,99.99
2018-02-02T04:10:06.777Z,99.99
2018-02-02T04:11:07.013Z,99.99
2018-02-02T04:12:06.996Z,99.99
2018-02-02T04:13:06.977Z,99.99
2018-02-02T04:14:06.962Z,99.99
2018-02-02T04:15:06.945Z,99.99
2018-02-02T04:16:06.928Z,99.99
2018-02-02T04:17:06.912Z,99.99
2018-02-02T04:18:06.897Z,99.99
2018-02-02T04:19:06.881Z,99.99
2018-02-02T04:20:06.864Z,99.99
2018-02-02T04:21:06.844Z,99.99
2018-02-02T04:22:06.830Z,99.99
2018-02-02T04:23:06.813Z,99.99
2018-02-02T04:24:06.794Z,99.99
2018-02-02T04:25:06.779Z,99.99
2018-02-02T04:26:06.510Z,99.99
2018-02-02T04:27:06.491Z,99.99
2018-02-02T04:28:06.474Z,99.99
2018-02-02T04:29:06.458Z,99.99
2018-02-02T04:30:06.694Z,99.99
2018-02-02T04:31:06.426Z,99.99
2018-02-02T04:32:06.664Z,99.99
2018-02-02T04:33:06.645Z,99.99
2018-02-02T04:34:06.629Z,99.99
2018-02-02T04:35:06.610Z,99.99
2018-02-02T04:36:06.593Z,99.99
2018-02-02T04:37:06.578Z,99.99
2018-02-02T04:38:06.563Z,99.99
2018-02-02T04:39:06.554Z,99.99
2018-02-02T04:40:06.534Z,99.99
2018-02-02T04:41:06.509Z,99.99
2018-02-02T04:42:06.494Z,99.99
2018-02-02T04:43:06.477Z,99.99
2018-02-02T04:44:06.207Z,99.99
2018-02-02T04:45:06.188Z,99.99
2018-02-02T04:46:06.174Z,99.99
2018-02-02T04:47:06.410Z,99.99
2018-02-02T04:48:06.396Z,99.99
2018-02-02T04:49:06.381Z,99.99
2018-02-02T04:50:06.361Z,99.99
2018-02-02T04:51:06.347Z,99.99
2018-02-02T04:52:06.072Z,99.99
2018-02-02T04:53:06.308Z,99.99
2018-02-02T04:54:06.293Z,99.99
2018-02-02T04:55:06.275Z,99.99
2018-02-02T04:56:06.257Z,99.99
2018-02-02T04:57:06.241Z,99.99
2018-02-02T04:58:06.222Z,99.99
2018-02-02T04:59:06.211Z,99.99
2018-02-02T05:00:05.937Z,99.99
2018-02-02T05:01:06.181Z,99.99
2018-02-02T05:02:06.160Z,99.99
2018-02-02T05:03:06.139Z,99.99
2018-02-02T05:04:06.125Z,99.99
2018-02-02T05:05:06.108Z,99.99
2018-02-02T05:06:06.097Z,99.99
2018-02-02T05:07:05.819Z,99.99
2018-02-02T05:08:06.061Z,99.99
2018-02-02T05:09:06.039Z,99.99
2018-02-02T05:10:06.024Z,99.99
2018-02-02T05:11:06.004Z,99.99
2018-02-02T05:12:05.985Z,99.99
2018-02-02T05:13:05.972Z,99.99
2018-02-02T05:14:05.953Z,99.99
2018-02-02T05:15:05.683Z,99.99
2018-02-02T05:16:05.668Z,99.99
2018-02-02T05:17:05.651Z,99.99
2018-02-02T05:18:05.886Z,99.99
2018-02-02T05:19:05.870Z,99.99
2018-02-02T05:20:05.600Z,99.99
2018-02-02T05:21:05.839Z,99.99
2018-02-02T05:22:05.817Z,99.99
2018-02-02T05:23:05.807Z,99.99
2018-02-02T05:24:05.785Z,99.99
2018-02-02T05:25:05.523Z,99.99
2018-02-02T05:26:05.756Z,99.99
2018-02-02T05:27:05.483Z,99.99
2018-02-02T05:28:05.466Z,99.99
2018-02-02T05:29:05.703Z,99.99
2018-02-02T05:30:05.430Z,99.99
2018-02-02T05:31:05.414Z,99.99
2018-02-02T05:32:05.655Z,99.99
2018-02-02T05:33:05.636Z,99.99
2018-02-02T05:34:05.618Z,99.99
2018-02-02T05:35:05.606Z,99.99
2018-02-02T05:36:05.332Z,99.99
2018-02-02T05:37:05.566Z,99.99
2018-02-02T05:38:05.554Z,99.99
2018-02-02T05:39:05.538Z,99.99
2018-02-02T05:40:05.517Z,99.99
2018-02-02T05:41:05.249Z,99.99
2018-02-02T05:42:05.485Z,99.99
2018-02-02T05:43:05.466Z,99.99
2018-02-02T05:44:05.448Z,99.99
2018-02-02T05:45:05.433Z,99.99
2018-02-02T05:46:05.416Z,99.99
2018-02-02T05:47:05.400Z,99.99
2018-02-02T05:48:05.384Z,99.99
2018-02-02T05:49:05.365Z,99.99
2018-02-02T05:50:05.353Z,99.99
2018-02-02T05:51:05.333Z,99.99
2018-02-02T05:52:05.318Z,99.99
2018-02-02T05:53:05.305Z,99.99
2018-02-02T05:54:05.043Z,99.99
2018-02-02T05:55:05.015Z,99.99
2018-02-02T05:56:05.253Z,99.99
2018-02-02T05:57:05.234Z,99.99
2018-02-02T05:58:05.215Z,99.99
2018-02-02T05:59:05.199Z,99.99
2018-02-02T06:00:05.187Z,99.99
2018-02-02T06:01:05.171Z,99.99
2018-02-02T06:02:05.152Z,99.99
2018-02-02T06:03:05.131Z,99.99
2018-02-02T06:04:04.865Z,99.99
2018-02-02T06:05:04.849Z,99.99
2018-02-02T06:06:04.833Z,99.99
2018-02-02T06:07:05.069Z,99.99
2018-02-02T06:08:05.060Z,99.99
2018-02-02T06:09:05.038Z,99.99
2018-02-02T06:10:05.022Z,99.99
2018-02-02T06:11:05.011Z,99.99
2018-02-02T06:12:04.992Z,99.99
2018-02-02T06:13:04.972Z,99.99
2018-02-02T06:14:04.956Z,99.99
2018-02-02T06:15:04.690Z,99.99
2018-02-02T06:16:04.924Z,99.99
2018-02-02T06:17:04.910Z,99.99
2018-02-02T06:18:04.892Z,99.76
2018-02-02T06:19:04.876Z,99.66
2018-02-02T06:20:04.865Z,99.85
2018-02-02T06:21:04.854Z,99.95
2018-02-02T06:22:04.834Z,99.66
2018-02-02T06:23:04.816Z,99.57
2018-02-02T06:24:04.800Z,99.95
2018-02-02T06:25:04.786Z,99.99
2018-02-02T06:26:04.515Z,99.76
2018-02-02T06:27:04.757Z,99.1
2018-02-02T06:28:04.739Z,99.57
2018-02-02T06:29:04.722Z,99.76
2018-02-02T06:30:04.713Z,99.19
2018-02-02T06:31:04.686Z,99.1
2018-02-02T06:32:04.680Z,99.38
2018-02-02T06:33:04.407Z,98.82
2018-02-02T06:34:04.647Z,99.01
2018-02-02T06:35:04.629Z,99.01
2018-02-02T06:36:04.610Z,98.72
2018-02-02T06:37:04.596Z,98.82
2018-02-02T06:38:04.579Z,99.01
2018-02-02T06:39:04.321Z,98.53
2018-02-02T06:40:04.552Z,98.44
2018-02-02T06:41:04.537Z,98.82
2018-02-02T06:42:04.527Z,98.91
2018-02-02T06:43:04.514Z,98.82
2018-02-02T06:44:04.492Z,98.15
2018-02-02T06:45:04.476Z,98.25
2018-02-02T06:46:04.504Z,98.53
2018-02-02T06:47:04.445Z,98.25
2018-02-02T06:48:04.430Z,98.06
2018-02-02T06:49:04.160Z,98.06
2018-02-02T06:50:04.403Z,98.25
2018-02-02T06:51:04.395Z,98.15
2018-02-02T06:52:04.368Z,98.06
2018-02-02T06:53:04.354Z,98.34
2018-02-02T06:54:04.342Z,98.25
2018-02-02T06:55:04.336Z,98.49
2018-02-02T06:56:04.311Z,98.86
2018-02-02T06:57:04.292Z,98.3
2018-02-02T06:58:04.277Z,97.73
2018-02-02T06:59:04.265Z,98.06
2018-02-02T07:00:04.347Z,97.44
2018-02-02T07:01:04.236Z,97.82
2018-02-02T07:02:04.217Z,97.92
2018-02-02T07:03:03.959Z,97.92
2018-02-02T07:04:04.190Z,98.01
2018-02-02T07:05:04.176Z,97.73
2018-02-02T07:06:03.904Z,97.92
2018-02-02T07:07:04.141Z,97.73
2018-02-02T07:08:04.126Z,97.92
2018-02-02T07:09:04.109Z,97.92
2018-02-02T07:10:03.842Z,98.11
2018-02-02T07:11:04.081Z,98.11
2018-02-02T07:12:04.063Z,97.54
2018-02-02T07:13:04.054Z,97.82
2018-02-02T07:14:04.040Z,97.73
2018-02-02T07:15:04.026Z,97.35
2018-02-02T07:16:04.009Z,97.35
2018-02-02T07:17:03.738Z,97.16
2018-02-02T07:18:03.769Z,97.25
2018-02-02T07:19:03.983Z,97.35
2018-02-02T07:20:03.946Z,97.16
2018-02-02T07:21:03.939Z,97.16
2018-02-02T07:22:03.920Z,97.06
2018-02-02T07:23:03.907Z,97.06
2018-02-02T07:24:03.636Z,97.16
2018-02-02T07:25:03.874Z,97.16
2018-02-02T07:26:03.863Z,97.16
2018-02-02T07:27:03.844Z,97.16
2018-02-02T07:28:03.832Z,97.16
2018-02-02T07:29:03.813Z,97.16
2018-02-02T07:30:03.801Z,97.35
2018-02-02T07:31:03.789Z,97.35
2018-02-02T07:32:03.769Z,97.16
2018-02-02T07:33:03.752Z,96.97
2018-02-02T07:34:03.737Z,97.06
2018-02-02T07:35:03.731Z,97.06
2018-02-02T07:36:03.710Z,97.25
2018-02-02T07:37:03.698Z,97.16
2018-02-02T07:38:03.681Z,97.35
2018-02-02T07:39:03.666Z,97.44
2018-02-02T07:40:03.651Z,97.54
2018-02-02T07:41:03.382Z,96.97
2018-02-02T07:42:03.622Z,96.88
2018-02-02T07:43:03.606Z,97.06
2018-02-02T07:44:03.593Z,97.25
2018-02-02T07:45:03.583Z,96.88
2018-02-02T07:46:03.310Z,97.25
2018-02-02T07:47:03.549Z,97.06
2018-02-02T07:48:03.535Z,97.16
2018-02-02T07:49:03.267Z,97.16
2018-02-02T07:50:03.253Z,97.54
2018-02-02T07:51:03.506Z,97.44
2018-02-02T07:52:03.494Z,97.25
2018-02-02T07:53:03.220Z,96.97
2018-02-02T07:54:03.207Z,97.16
2018-02-02T07:55:03.184Z,97.06
2018-02-02T07:56:03.427Z,96.97
2018-02-02T07:57:03.154Z,96.97
2018-02-02T07:58:03.396Z,96.97
2018-02-02T07:59:03.378Z,96.88
2018-02-02T08:00:03.365Z,96.97
2018-02-02T08:01:03.355Z,96.97
2018-02-02T08:02:03.343Z,97.06
2018-02-02T08:03:03.321Z,96.69
2018-02-02T08:04:03.307Z,96.45
2018-02-02T08:05:03.043Z,96.45
2018-02-02T08:06:03.336Z,96.07
2018-02-02T08:07:03.266Z,95.98
2018-02-02T08:08:02.999Z,95.5
2018-02-02T08:09:03.235Z,95.6
2018-02-02T08:10:03.219Z,95.5
2018-02-02T08:11:02.989Z,95.6
2018-02-02T08:12:03.198Z,95.41
2018-02-02T08:13:03.185Z,95.31
2018-02-02T08:14:03.168Z,94.84
2018-02-02T08:15:03.172Z,94.46
2018-02-02T08:16:03.149Z,94.13
2018-02-02T08:17:03.132Z,94.6
2018-02-02T08:18:03.114Z,94.51
2018-02-02T08:19:03.100Z,94.7
2018-02-02T08:20:03.098Z,94.13
2018-02-02T08:21:03.068Z,94.32
2018-02-02T08:22:03.058Z,94.32
2018-02-02T08:23:03.067Z,93.61
2018-02-02T08:24:03.284Z,93.41
2018-02-02T08:25:03.017Z,93.04
2018-02-02T08:26:03.004Z,93.04
2018-02-02T08:27:02.993Z,92.38
2018-02-02T08:28:02.979Z,91.9
2018-02-02T08:29:02.972Z,92.76
2018-02-02T08:30:02.969Z,92.85
2018-02-02T08:31:02.684Z,92.47
2018-02-02T08:32:02.931Z,92.76
2018-02-02T08:33:02.913Z,92.42
2018-02-02T08:34:02.900Z,92.23
2018-02-02T08:35:02.894Z,92.33
2018-02-02T08:36:02.880Z,91.56
2018-02-02T08:37:02.861Z,92.04
2018-02-02T08:38:02.864Z,90.9
2018-02-02T08:39:02.841Z,90.9
2018-02-02T08:40:02.827Z,90.9
2018-02-02T08:41:02.812Z,90.95
2018-02-02T08:42:02.800Z,90.47
2018-02-02T08:43:02.531Z,89.72
2018-02-02T08:44:02.774Z,90.76
2018-02-02T08:45:02.762Z,90.47
2018-02-02T08:46:02.752Z,89.9
2018-02-02T08:47:02.738Z,89.62
2018-02-02T08:48:02.815Z,88.76
2018-02-02T08:49:02.462Z,88.76
2018-02-02T08:50:02.448Z,88.67
2018-02-02T08:51:02.433Z,88.76
2018-02-02T08:52:02.680Z,89.05
2018-02-02T08:53:02.675Z,88.57
2018-02-02T08:54:02.419Z,88.76
2018-02-02T08:55:02.644Z,88.67
2018-02-02T08:56:02.628Z,88.24
2018-02-02T08:57:02.628Z,88.43
2018-02-02T08:58:02.606Z,88.48
2018-02-02T08:59:02.350Z,87.62
2018-02-02T09:00:02.585Z,87.53
2018-02-02T09:01:02.317Z,87.76
2018-02-02T09:02:02.567Z,87.53
2018-02-02T09:03:02.295Z,87.48
2018-02-02T09:04:02.290Z,87.57
2018-02-02T09:05:02.527Z,87.67
2018-02-02T09:06:02.519Z,87.57
2018-02-02T09:07:02.507Z,87.1
2018-02-02T09:08:02.238Z,87.01
2018-02-02T09:09:02.227Z,87.38
2018-02-02T09:10:02.471Z,87.01
2018-02-02T09:11:02.459Z,86.82
2018-02-02T09:12:02.452Z,87.1
2018-02-02T09:13:02.436Z,86.82
2018-02-02T09:14:02.438Z,86.53
2018-02-02T09:15:02.430Z,86.53
2018-02-02T09:16:02.419Z,86.05
2018-02-02T09:17:02.396Z,86.53
2018-02-02T09:18:02.126Z,85.68
2018-02-02T09:19:02.380Z,85.2
2018-02-02T09:20:02.361Z,85.2
2018-02-02T09:21:02.345Z,85.39
2018-02-02T09:22:02.354Z,85.39
2018-02-02T09:23:02.334Z,85.11
2018-02-02T09:24:02.311Z,85.49
2018-02-02T09:25:02.313Z,86.15
2018-02-02T09:26:02.292Z,85.68
2018-02-02T09:27:02.276Z,85.2
2018-02-02T09:28:02.272Z,85.49
2018-02-02T09:29:02.257Z,85.39
2018-02-02T09:30:02.249Z,85.2
2018-02-02T09:31:02.237Z,85.01
2018-02-02T09:32:01.974Z,85.39
2018-02-02T09:33:02.212Z,85.3
2018-02-02T09:34:02.209Z,85.58
2018-02-02T09:35:01.940Z,85.77
2018-02-02T09:36:02.177Z,85.68
2018-02-02T09:37:02.169Z,85.3
2018-02-02T09:38:02.160Z,85.2
2018-02-02T09:39:02.148Z,85.58
2018-02-02T09:40:02.134Z,85.49
2018-02-02T09:41:02.144Z,85.49
2018-02-02T09:42:02.215Z,85.11
2018-02-02T09:43:02.102Z,85.2
2018-02-02T09:44:02.087Z,85.39
2018-02-02T09:45:02.077Z,85.49
2018-02-02T09:46:02.075Z,85.68
2018-02-02T09:47:02.051Z,85.63
2018-02-02T09:48:02.042Z,85.86
2018-02-02T09:49:02.096Z,86.01
2018-02-02T09:50:02.017Z,85.63
2018-02-02T09:51:02.010Z,86.11
2018-02-02T09:52:02.005Z,86.11
2018-02-02T09:53:01.988Z,85.82
2018-02-02T09:54:01.970Z,86.49
2018-02-02T09:55:01.966Z,86.68
2018-02-02T09:56:01.948Z,86.96
2018-02-02T09:57:01.949Z,87.43
2018-02-02T09:58:01.924Z,87.34
2018-02-02T09:59:01.917Z,87.53
2018-02-02T10:00:01.906Z,87.72
2018-02-02T10:01:01.950Z,88.2
2018-02-02T10:02:01.884Z,88.01
2018-02-02T10:03:01.868Z,88.01
2018-02-02T10:04:01.855Z,88.1
2018-02-02T10:05:01.844Z,87.91
2018-02-02T10:06:01.837Z,88.2
2018-02-02T10:07:01.821Z,88.01
2018-02-02T10:08:01.833Z,88.01
2018-02-02T10:09:01.542Z,87.34
2018-02-02T10:10:01.530Z,87.24
2018-02-02T10:11:01.773Z,87.82
2018-02-02T10:12:01.758Z,87.91
2018-02-02T10:13:01.749Z,87.43
2018-02-02T10:14:01.743Z,87.91
2018-02-02T10:15:01.728Z,87.91
2018-02-02T10:16:01.724Z,88.39
2018-02-02T10:17:01.705Z,88.1
2018-02-02T10:18:01.708Z,88.48
2018-02-02T10:19:01.676Z,88.29
2018-02-02T10:20:01.664Z,88.1
2018-02-02T10:21:01.656Z,88.01
2018-02-02T10:22:01.640Z,88.01
2018-02-02T10:23:01.651Z,88.01
2018-02-02T10:24:01.617Z,87.91
2018-02-02T10:25:01.617Z,87.34
2018-02-02T10:26:01.591Z,87.43
2018-02-02T10:27:01.582Z,87.43
2018-02-02T10:28:01.571Z,87.62
2018-02-02T10:29:01.302Z,87.05
2018-02-02T10:30:01.546Z,86.96
2018-02-02T10:31:01.531Z,86.96
2018-02-02T10:32:01.517Z,86.68
2018-02-02T10:33:01.506Z,87.72
2018-02-02T10:34:01.494Z,87.72
2018-02-02T10:35:01.494Z,87.05
2018-02-02T10:36:01.469Z,86.96
2018-02-02T10:37:01.457Z,87.05
2018-02-02T10:38:01.445Z,85.91
2018-02-02T10:39:01.186Z,86.49
2018-02-02T10:40:01.427Z,86.68
2018-02-02T10:41:01.156Z,86.2
2018-02-02T10:42:01.144Z,86.2
2018-02-02T10:43:01.396Z,85.25
2018-02-02T10:44:01.374Z,85.72
2018-02-02T10:45:01.107Z,85.16
2018-02-02T10:46:01.097Z,85.25
2018-02-02T10:47:01.385Z,85.63
2018-02-02T10:48:01.324Z,85.91
2018-02-02T10:49:01.315Z,85.82
2018-02-02T10:50:01.319Z,85.91
2018-02-02T10:51:01.308Z,85.53
2018-02-02T10:52:01.026Z,85.53
2018-02-02T10:53:01.267Z,85.06
2018-02-02T10:54:01.252Z,85.49
2018-02-02T10:55:00.989Z,84.34
2018-02-02T10:56:01.258Z,84.91
2018-02-02T10:57:01.219Z,84.44
2018-02-02T10:58:01.207Z,83.97
2018-02-02T10:59:01.197Z,83.3
2018-02-02T11:00:00.937Z,83.2
2018-02-02T11:01:01.172Z,82.45
2018-02-02T11:02:01.162Z,82.45
2018-02-02T11:03:01.151Z,82.64
2018-02-02T11:04:01.135Z,81.92
2018-02-02T11:05:01.135Z,81.78
2018-02-02T11:06:00.863Z,81.63
2018-02-02T11:07:01.130Z,81.54
2018-02-02T11:08:01.093Z,81.63
2018-02-02T11:09:00.829Z,81.44
2018-02-02T11:10:01.073Z,81.92
2018-02-02T11:11:01.076Z,81.35
2018-02-02T11:12:01.056Z,81.35
2018-02-02T11:13:01.038Z,80.87
2018-02-02T11:14:01.038Z,80.05
2018-02-02T11:15:01.022Z,79.68
2018-02-02T11:16:01.060Z,79.68
2018-02-02T11:17:00.742Z,79.2
2018-02-02T11:18:00.733Z,79.58
2018-02-02T11:19:00.720Z,79.68
2018-02-02T11:20:00.967Z,79.58
2018-02-02T11:21:00.700Z,79.39
2018-02-02T11:22:00.945Z,79.3
2018-02-02T11:23:00.678Z,79.68
2018-02-02T11:24:00.923Z,79.58
2018-02-02T11:25:00.658Z,79.49
2018-02-02T11:26:00.648Z,79.11
2018-02-02T11:27:00.892Z,79.68
2018-02-02T11:28:00.884Z,79.49
2018-02-02T11:29:00.619Z,79.2
2018-02-02T11:30:00.613Z,78.34
2018-02-02T11:31:00.850Z,78.34
2018-02-02T11:32:00.839Z,78.34
2018-02-02T11:33:00.574Z,78.53
2018-02-02T11:34:00.563Z,78.34
2018-02-02T11:35:00.554Z,78.25
2018-02-02T11:36:00.795Z,78.91
2018-02-02T11:37:00.533Z,78.25
2018-02-02T11:38:00.784Z,77.97
2018-02-02T11:39:00.764Z,78.44
2018-02-02T11:40:00.503Z,77.68
2018-02-02T11:41:00.492Z,77.39
2018-02-02T11:42:00.483Z,78.34
2018-02-02T11:43:00.472Z,78.44
2018-02-02T11:44:00.472Z,78.25
2018-02-02T11:45:00.460Z,77.87
2018-02-02T11:46:00.692Z,77.87
2018-02-02T11:47:00.682Z,77.87
2018-02-02T11:48:00.675Z,77.58
2018-02-02T11:49:00.662Z,77.58
2018-02-02T11:50:00.661Z,77.87
2018-02-02T11:51:00.646Z,77.68
2018-02-02T11:52:00.634Z,78.16
2018-02-02T11:53:00.621Z,78.25
2018-02-02T11:54:00.628Z,78.06
2018-02-02T11:55:00.620Z,78.53
2018-02-02T11:56:00.338Z,78.48
2018-02-02T11:57:00.583Z,76.76
2018-02-02T11:58:00.319Z,75.81
2018-02-02T11:59:00.562Z,75.62
2018-02-02T12:00:00.557Z,75.62
2018-02-02T12:01:00.538Z,75.43
2018-02-02T12:02:00.532Z,75.24
2018-02-02T12:03:00.522Z,75.43
2018-02-02T12:04:00.258Z,75.24
2018-02-02T12:05:00.502Z,74.77
2018-02-02T12:06:00.238Z,75.34
2018-02-02T12:07:00.490Z,74.96
2018-02-02T12:08:00.482Z,75.62
2018-02-02T12:09:00.461Z,74.77
2018-02-02T12:10:00.454Z,74.39
2018-02-02T12:11:00.443Z,75.34
2018-02-02T12:12:00.433Z,75.34
2018-02-02T12:13:00.424Z,75.34
2018-02-02T12:14:00.426Z,75.91
2018-02-02T12:15:00.404Z,75.78
2018-02-02T12:16:00.411Z,75.59
2018-02-02T12:17:00.398Z,75.87
2018-02-02T12:18:00.376Z,75.96
2018-02-02T12:19:00.365Z,76.35
2018-02-02T12:20:00.360Z,76.44
2018-02-02T12:21:00.344Z,76.01
2018-02-02T12:22:00.336Z,75.91
2018-02-02T12:23:00.326Z,76.01
2018-02-02T12:24:00.060Z,76.1
2018-02-02T12:25:00.303Z,76.01
2018-02-02T12:26:00.041Z,75.53
2018-02-02T12:27:00.284Z,75.81
2018-02-02T12:28:00.317Z,75.34
2018-02-02T12:29:00.259Z,75.72
2018-02-02T12:29:59.999Z,75.72
2018-02-02T12:31:00.243Z,75.72
2018-02-02T12:32:00.234Z,76.01
2018-02-02T12:33:00.225Z,75.91
2018-02-02T12:34:00.217Z,74.96
2018-02-02T12:35:00.220Z,75.34
2018-02-02T12:36:00.201Z,75.43
2018-02-02T12:36:59.931Z,75.43
2018-02-02T12:38:00.183Z,75.62
2018-02-02T12:39:00.175Z,76.2
2018-02-02T12:40:00.162Z,76.01
2018-02-02T12:41:00.144Z,75.53
2018-02-02T12:42:00.137Z,75.91
2018-02-02T12:43:00.125Z,75.34
2018-02-02T12:44:00.121Z,74.96
2018-02-02T12:45:00.109Z,75.05
2018-02-02T12:46:00.100Z,75.05
2018-02-02T12:46:59.834Z,74.29
2018-02-02T12:48:00.077Z,74.48
2018-02-02T12:49:00.077Z,74.77
2018-02-02T12:50:00.077Z,75.34
2018-02-02T12:50:59.793Z,75.34
2018-02-02T12:51:59.785Z,75.72
2018-02-02T12:53:00.029Z,76.01